createdAt,value
2023-01-30T00:00:05.787Z,22.19
2023-01-30T00:01:05.276Z,22.22
2023-01-30T00:03:25.512Z,22.18
2023-01-30T00:56:40.223Z,22.11
2023-01-30T01:14:28.871Z,22.19
2023-01-30T01:21:28.408Z,22.22
2023-01-30T01:23:48.735Z,22.42
2023-01-30T01:24:46.997Z,22.50
2023-01-30T01:25:46.801Z,22.55
2023-01-30T01:36:52.797Z,22.54
2023-01-30T01:49:29.258Z,22.39
2023-01-30T01:50:28.895Z,22.59
2023-01-30T01:51:29.664Z,22.64
2023-01-30T01:55:38.912Z,22.40
2023-01-30T02:07:43.605Z,22.37
2023-01-30T02:08:43.533Z,22.58
2023-01-30T02:16:32.398Z,22.41
2023-01-30T02:48:15.459Z,22.55
2023-01-30T02:57:54.737Z,22.48
2023-01-30T03:00:13.999Z,22.58
2023-01-30T03:02:38.082Z,22.55
2023-01-30T06:16:50.710Z,22.31
2023-01-30T06:24:25.972Z,20.56
2023-01-30T06:25:25.217Z,20.23
2023-01-30T06:27:24.318Z,19.53
2023-01-30T06:28:25.412Z,19.25
2023-01-30T06:29:24.355Z,18.92
2023-01-30T06:31:43.897Z,17.92
2023-01-30T06:32:43.404Z,17.60
2023-01-30T06:33:43.769Z,17.01
2023-01-30T06:34:43.201Z,16.27
2023-01-30T06:35:43.219Z,15.82
2023-01-30T06:36:43.269Z,15.80
2023-01-30T06:37:43.235Z,15.81
2023-01-30T06:38:43.552Z,15.70
2023-01-30T06:39:43.279Z,15.44
2023-01-30T06:40:43.255Z,15.31
2023-01-30T06:41:43.192Z,14.89
2023-01-30T06:42:43.326Z,14.79
2023-01-30T06:43:43.999Z,14.78
2023-01-30T06:44:43.174Z,15.26
2023-01-30T06:48:02.211Z,14.37
2023-01-30T06:49:03.442Z,14.06
2023-01-30T06:50:02.210Z,13.77
2023-01-30T06:51:02.202Z,13.63
2023-01-30T06:52:02.424Z,13.37
2023-01-30T06:53:02.145Z,13.34
2023-01-30T06:54:02.201Z,13.67
2023-01-30T06:55:02.672Z,13.82
2023-01-30T06:56:02.137Z,13.98
2023-01-30T06:57:02.166Z,14.03
2023-01-30T06:58:02.147Z,13.91
2023-01-30T06:59:02.108Z,13.90
2023-01-30T07:00:02.173Z,14.02
2023-01-30T07:01:02.542Z,14.17
2023-01-30T07:02:02.235Z,14.46
2023-01-30T07:03:02.216Z,14.72
2023-01-30T07:04:02.397Z,14.94
2023-01-30T07:05:02.680Z,15.16
2023-01-30T07:06:02.517Z,15.49
2023-01-30T07:07:03.161Z,15.92
2023-01-30T07:08:02.785Z,16.38
2023-01-30T07:09:03.141Z,16.83
2023-01-30T07:11:02.691Z,17.66
2023-01-30T07:12:02.971Z,18.01
2023-01-30T07:13:03.288Z,18.33
2023-01-30T07:14:04.281Z,18.60
2023-01-30T07:15:03.361Z,18.85
2023-01-30T07:16:02.617Z,19.07
2023-01-30T07:17:04.111Z,19.29
2023-01-30T07:18:03.110Z,19.47
2023-01-30T07:20:03.822Z,19.80
2023-01-30T07:21:03.292Z,19.93
2023-01-30T07:22:03.413Z,20.06
2023-01-30T07:23:03.597Z,20.18
2023-01-30T07:24:03.273Z,20.28
2023-01-30T07:25:03.052Z,20.37
2023-01-30T07:26:03.094Z,20.45
2023-01-30T07:27:03.518Z,20.53
2023-01-30T07:29:03.215Z,20.66
2023-01-30T07:30:03.237Z,20.71
2023-01-30T07:31:03.401Z,20.77
2023-01-30T07:33:22.552Z,20.81
2023-01-30T07:34:22.714Z,20.88
2023-01-30T07:35:23.761Z,20.92
2023-01-30T07:36:21.939Z,20.96
2023-01-30T07:37:23.147Z,21.01
2023-01-30T07:38:21.907Z,21.07
2023-01-30T07:44:46.772Z,21.34
2023-01-30T07:59:37.619Z,21.49
2023-01-30T08:00:37.835Z,21.53
2023-01-30T08:01:37.322Z,21.56
2023-01-30T08:02:37.262Z,21.57
2023-01-30T08:03:37.317Z,21.58
2023-01-30T08:04:37.335Z,21.59
2023-01-30T08:05:37.317Z,21.62
2023-01-30T08:06:37.256Z,21.62
2023-01-30T08:07:37.250Z,21.62
2023-01-30T08:08:37.189Z,21.63
2023-01-30T08:09:37.274Z,21.64
2023-01-30T08:10:37.223Z,21.67
2023-01-30T08:11:37.219Z,21.70
2023-01-30T08:12:37.225Z,21.74
2023-01-30T08:13:37.455Z,21.79
2023-01-30T08:14:37.177Z,21.81
2023-01-30T08:16:56.572Z,21.46
2023-01-30T08:17:56.370Z,21.45
2023-01-30T08:18:56.365Z,21.47
2023-01-30T08:19:56.584Z,21.52
2023-01-30T08:20:56.981Z,21.55
2023-01-30T08:21:56.469Z,20.63
2023-01-30T08:22:57.035Z,20.63
2023-01-30T08:23:56.489Z,20.72
2023-01-30T08:24:56.550Z,20.83
2023-01-30T08:25:56.510Z,20.95
2023-01-30T08:26:56.514Z,21.07
2023-01-30T08:27:56.504Z,21.18
2023-01-30T08:28:56.591Z,21.28
2023-01-30T08:29:56.675Z,21.38
2023-01-30T08:30:56.759Z,21.47
2023-01-30T08:31:56.759Z,21.52
2023-01-30T08:33:57.045Z,20.76
2023-01-30T08:34:56.812Z,20.37
2023-01-30T08:35:56.924Z,20.06
2023-01-30T08:36:56.932Z,20.04
2023-01-30T08:37:56.938Z,19.89
2023-01-30T08:38:56.967Z,19.68
2023-01-30T08:39:56.944Z,19.57
2023-01-30T08:40:56.916Z,19.70
2023-01-30T08:41:56.986Z,19.84
2023-01-30T08:42:56.983Z,20.02
2023-01-30T08:44:57.050Z,20.37
2023-01-30T08:45:57.113Z,20.51
2023-01-30T08:46:57.128Z,20.66
2023-01-30T08:47:57.235Z,20.77
2023-01-30T08:48:57.232Z,20.89
2023-01-30T08:49:57.230Z,20.99
2023-01-30T08:50:57.266Z,21.09
2023-01-30T08:51:57.359Z,21.17
2023-01-30T08:52:57.240Z,21.25
2023-01-30T08:53:57.414Z,21.31
2023-01-30T08:54:58.146Z,21.37
2023-01-30T08:55:58.309Z,21.43
2023-01-30T08:56:57.408Z,21.49
2023-01-30T08:57:57.446Z,21.53
2023-01-30T08:59:58.274Z,21.28
2023-01-30T09:22:58.696Z,21.93
2023-01-30T09:23:58.645Z,21.92
2023-01-30T09:24:58.790Z,21.92
2023-01-30T09:25:58.728Z,21.92
2023-01-30T09:26:58.793Z,21.92
2023-01-30T09:27:58.857Z,21.95
2023-01-30T09:28:58.848Z,21.95
2023-01-30T09:29:59.329Z,21.98
2023-01-30T09:30:59.065Z,22.04
2023-01-30T09:31:59.104Z,22.11
2023-01-30T09:32:58.983Z,22.04
2023-01-30T09:33:59.066Z,21.81
2023-01-30T09:34:59.834Z,21.56
2023-01-30T09:35:59.100Z,21.32
2023-01-30T09:36:59.225Z,21.11
2023-01-30T09:37:59.191Z,21.11
2023-01-30T09:38:59.165Z,21.15
2023-01-30T09:39:59.307Z,21.21
2023-01-30T09:40:59.241Z,21.31
2023-01-30T09:41:59.266Z,21.40
2023-01-30T09:42:59.298Z,21.49
2023-01-30T09:43:59.355Z,21.58
2023-01-30T09:44:59.446Z,21.66
2023-01-30T09:46:00.358Z,21.74
2023-01-30T09:46:59.494Z,21.83
2023-01-30T09:48:02.372Z,21.91
2023-01-30T09:48:59.518Z,21.99
2023-01-30T09:49:59.608Z,21.94
2023-01-30T09:51:00.327Z,21.86
2023-01-30T09:52:00.921Z,21.79
2023-01-30T09:52:59.495Z,21.78
2023-01-30T09:54:00.971Z,21.78
2023-01-30T09:54:59.444Z,21.80
2023-01-30T09:56:59.439Z,21.84
2023-01-30T09:57:59.414Z,21.86
2023-01-30T09:58:59.572Z,21.87
2023-01-30T09:59:59.464Z,21.88
2023-01-30T10:00:59.605Z,21.88
2023-01-30T10:02:59.508Z,21.93
2023-01-30T10:03:59.379Z,21.98
2023-01-30T10:05:02.024Z,22.06
2023-01-30T10:06:59.432Z,22.16
2023-01-30T10:07:59.388Z,22.21
2023-01-30T10:08:59.351Z,22.27
2023-01-30T10:09:59.414Z,22.27
2023-01-30T10:11:09.616Z,22.24
2023-01-30T10:19:58.064Z,22.28
2023-01-30T10:33:51.951Z,21.93
2023-01-30T10:34:52.388Z,22.15
2023-01-30T10:35:52.987Z,22.22
2023-01-30T10:36:51.771Z,22.29
2023-01-30T10:37:51.731Z,22.34
2023-01-30T10:38:52.034Z,22.39
2023-01-30T10:39:55.131Z,22.43
2023-01-30T10:40:51.808Z,22.46
2023-01-30T10:41:52.220Z,22.47
2023-01-30T10:55:36.458Z,21.89
2023-01-30T10:57:52.326Z,22.01
2023-01-30T11:17:46.353Z,22.27
2023-01-30T11:34:19.169Z,22.92
2023-01-30T11:47:56.677Z,21.73
2023-01-30T11:50:29.661Z,21.81
2023-01-30T12:20:53.484Z,22.46
2023-01-30T12:21:53.217Z,22.64
2023-01-30T12:26:54.168Z,22.44
2023-01-30T12:30:46.281Z,22.37
2023-01-30T12:31:45.856Z,22.28
2023-01-30T12:32:46.131Z,21.78
2023-01-30T12:33:46.143Z,21.57
2023-01-30T12:34:47.019Z,21.48
2023-01-30T12:35:45.455Z,21.42
2023-01-30T12:36:45.998Z,21.38
2023-01-30T12:37:45.499Z,21.40
2023-01-30T12:38:45.522Z,21.50
2023-01-30T12:40:47.120Z,21.68
2023-01-30T12:41:45.438Z,21.77
2023-01-30T12:42:45.401Z,21.85
2023-01-30T12:43:45.418Z,21.92
2023-01-30T12:44:45.437Z,22.00
2023-01-30T12:45:45.388Z,22.05
2023-01-30T12:46:45.455Z,22.11
2023-01-30T12:47:45.327Z,22.16
2023-01-30T12:48:48.907Z,21.83
2023-01-30T12:49:46.412Z,21.69
2023-01-30T12:50:45.299Z,21.74
2023-01-30T12:51:45.306Z,21.81
2023-01-30T12:52:45.393Z,21.90
2023-01-30T12:53:45.316Z,22.02
2023-01-30T12:54:45.313Z,22.14
2023-01-30T12:55:45.290Z,22.23
2023-01-30T12:56:47.489Z,22.32
2023-01-30T13:25:23.820Z,22.41
2023-01-30T13:38:45.352Z,22.49
2023-01-30T13:39:45.832Z,22.60
2023-01-30T13:57:13.940Z,22.36
2023-01-30T13:59:49.441Z,22.38
2023-01-30T14:00:49.558Z,22.56
2023-01-30T14:01:49.669Z,22.62
2023-01-30T14:02:49.439Z,22.60
2023-01-30T14:03:49.720Z,22.60
2023-01-30T14:04:49.469Z,22.61
2023-01-30T14:08:05.857Z,22.35
2023-01-30T14:11:43.600Z,22.33
2023-01-30T14:12:43.821Z,22.54
2023-01-30T14:13:43.325Z,22.59
2023-01-30T14:16:02.842Z,22.57
2023-01-30T14:17:02.469Z,22.61
2023-01-30T15:02:58.674Z,22.41
2023-01-30T15:03:59.083Z,22.46
2023-01-30T15:06:33.298Z,22.28
2023-01-30T15:07:33.550Z,22.45
2023-01-30T15:08:34.003Z,22.52
2023-01-30T15:32:46.438Z,22.10
2023-01-30T15:36:05.292Z,22.44
2023-01-30T15:38:25.176Z,22.54
2023-01-30T15:39:25.555Z,22.62
2023-01-30T15:55:47.341Z,22.43
2023-01-30T15:58:57.190Z,22.32
2023-01-30T16:29:02.075Z,22.75
2023-01-30T17:33:04.793Z,22.43
2023-01-30T17:34:05.056Z,22.55
2023-01-30T17:35:04.273Z,22.62
2023-01-30T17:36:04.490Z,22.65
2023-01-30T17:37:04.484Z,22.68
2023-01-30T17:38:06.013Z,22.70
2023-01-30T17:39:04.305Z,22.72
2023-01-30T17:40:04.478Z,22.72
2023-01-30T17:41:04.477Z,22.74
2023-01-30T17:42:04.227Z,22.74
2023-01-30T17:43:05.333Z,22.75
2023-01-30T17:45:23.524Z,22.67
